South Waltham, Massachusetts
Current Conditions -  °F | °C
As of 1:56 PM on Friday 31 Oct 2014 (Local Time) from KBED Reporting Station
Overcast Overcast  
Wind Chill: 51°   Ceiling: 3800
Heat Index: 51°   Visibility: 10mi
Dew Point: 37°   Wind: 8mph
Humidity: 59%   Direction: 110°ESE
Pressure: 29.98"   Gusts: NA
Location:  42.3696°N, 71.2353°W
Report Text: KBED 311756Z 11007KT 10SM BKN038 OVC047 11/03 A2998 RMK AO2 SLP168 T01060028 10117 20028 56016
Loading
Personal Weather Stations






























Interactive Weather Map
Tropical Storm Tracking
New forecast layout! Learn more

10-Day Weather Forecast

Advertisements
Track Severe Weather on mobile